sensor_id;sensor_type;location;lat;lon;timestamp;pressure;altitude;pressure_sealevel;temperature;humidity
50384;BME280;36301;48.310;12.786;2022-08-01T00:00:01;96207.53;;;19.02;73.28
50384;BME280;36301;48.310;12.786;2022-08-01T00:02:30;96203.72;;;19.00;73.34
50384;BME280;36301;48.310;12.786;2022-08-01T00:04:57;96199.88;;;19.01;73.18
50384;BME280;36301;48.310;12.786;2022-08-01T00:07:24;96203.66;;;19.03;72.95
50384;BME280;36301;48.310;12.786;2022-08-01T00:09:51;96202.28;;;18.95;73.61
50384;BME280;36301;48.310;12.786;2022-08-01T00:12:17;96196.53;;;18.97;73.74
50384;BME280;36301;48.310;12.786;2022-08-01T00:14:44;96204.63;;;18.93;73.62
50384;BME280;36301;48.310;12.786;2022-08-01T00:17:10;96191.22;;;18.93;73.40
50384;BME280;36301;48.310;12.786;2022-08-01T00:19:37;96193.16;;;18.92;73.61
50384;BME280;36301;48.310;12.786;2022-08-01T00:22:03;96198.09;;;18.94;73.85
50384;BME280;36301;48.310;12.786;2022-08-01T00:24:30;96195.28;;;19.01;73.71
50384;BME280;36301;48.310;12.786;2022-08-01T00:26:57;96195.28;;;19.01;74.01
50384;BME280;36301;48.310;12.786;2022-08-01T00:29:23;96193.75;;;19.00;74.07
50384;BME280;36301;48.310;12.786;2022-08-01T00:32:10;96202.50;;;19.04;73.72
50384;BME280;36301;48.310;12.786;2022-08-01T00:34:36;96197.53;;;19.03;73.93
50384;BME280;36301;48.310;12.786;2022-08-01T00:37:03;96191.81;;;19.01;73.63
50384;BME280;36301;48.310;12.786;2022-08-01T00:39:29;96198.56;;;19.09;73.68
50384;BME280;36301;48.310;12.786;2022-08-01T00:41:56;96199.56;;;19.15;75.80
50384;BME280;36301;48.310;12.786;2022-08-01T00:44:27;96197.53;;;19.03;76.77
50384;BME280;36301;48.310;12.786;2022-08-01T00:46:53;96193.56;;;18.91;77.32
50384;BME280;36301;48.310;12.786;2022-08-01T00:49:20;96163.66;;;18.73;77.33
50384;BME280;36301;48.310;12.786;2022-08-01T00:51:47;96186.41;;;18.84;77.17
50384;BME280;36301;48.310;12.786;2022-08-01T00:54:15;96186.00;;;18.86;77.59
50384;BME280;36301;48.310;12.786;2022-08-01T00:56:42;96185.91;;;18.89;77.02
50384;BME280;36301;48.310;12.786;2022-08-01T00:59:11;96184.75;;;18.90;76.73
50384;BME280;36301;48.310;12.786;2022-08-01T01:01:39;96183.16;;;18.93;75.92
50384;BME280;36301;48.310;12.786;2022-08-01T01:04:12;96176.38;;;18.88;75.24
50384;BME280;36301;48.310;12.786;2022-08-01T01:06:58;96180.69;;;19.02;74.25
50384;BME280;36301;48.310;12.786;2022-08-01T01:09:32;96189.75;;;19.08;75.04
50384;BME280;36301;48.310;12.786;2022-08-01T01:12:19;96185.16;;;19.09;74.23
50384;BME280;36301;48.310;12.786;2022-08-01T01:17:48;96181.38;;;19.06;74.38
50384;BME280;36301;48.310;12.786;2022-08-01T01:20:21;96179.34;;;19.10;73.64
50384;BME280;36301;48.310;12.786;2022-08-01T01:22:57;96180.47;;;19.13;73.86
50384;BME280;36301;48.310;12.786;2022-08-01T01:25:40;96166.09;;;19.03;73.53
50384;BME280;36301;48.310;12.786;2022-08-01T01:30:51;96175.44;;;19.15;73.32
50384;BME280;36301;48.310;12.786;2022-08-01T01:33:21;96170.75;;;19.19;73.21
50384;BME280;36301;48.310;12.786;2022-08-01T01:35:53;96160.00;;;19.19;72.86
50384;BME280;36301;48.310;12.786;2022-08-01T01:38:28;96162.25;;;19.21;72.93
50384;BME280;36301;48.310;12.786;2022-08-01T01:40:56;96170.00;;;19.18;73.48
50384;BME280;36301;48.310;12.786;2022-08-01T01:43:24;96163.59;;;19.12;73.75
50384;BME280;36301;48.310;12.786;2022-08-01T01:45:59;96168.56;;;19.14;73.56
50384;BME280;36301;48.310;12.786;2022-08-01T01:48:27;96173.16;;;19.13;73.89
50384;BME280;36301;48.310;12.786;2022-08-01T01:50:55;96160.50;;;19.14;73.50
50384;BME280;36301;48.310;12.786;2022-08-01T01:53:23;96175.84;;;19.13;73.81
50384;BME280;36301;48.310;12.786;2022-08-01T01:55:52;96160.94;;;19.12;73.88
50384;BME280;36301;48.310;12.786;2022-08-01T01:58:20;96163.41;;;19.03;73.89
50384;BME280;36301;48.310;12.786;2022-08-01T02:00:48;96171.47;;;19.03;74.50
50384;BME280;36301;48.310;12.786;2022-08-01T02:03:18;96164.66;;;18.99;74.47
50384;BME280;36301;48.310;12.786;2022-08-01T02:05:45;96164.72;;;18.95;75.11
50384;BME280;36301;48.310;12.786;2022-08-01T02:08:15;96163.22;;;18.94;75.33
50384;BME280;36301;48.310;12.786;2022-08-01T02:10:44;96152.50;;;18.74;75.86
50384;BME280;36301;48.310;12.786;2022-08-01T02:13:34;96170.31;;;18.84;75.82
50384;BME280;36301;48.310;12.786;2022-08-01T02:16:03;96162.41;;;18.77;75.89
50384;BME280;36301;48.310;12.786;2022-08-01T02:18:30;96171.91;;;18.82;75.92
50384;BME280;36301;48.310;12.786;2022-08-01T02:20:58;96171.22;;;18.78;76.26
50384;BME280;36301;48.310;12.786;2022-08-01T02:23:28;96179.75;;;18.73;76.24
50384;BME280;36301;48.310;12.786;2022-08-01T02:26:00;96172.94;;;18.68;76.91
50384;BME280;36301;48.310;12.786;2022-08-01T02:28:42;96162.94;;;18.49;77.41
50384;BME280;36301;48.310;12.786;2022-08-01T02:31:13;96173.94;;;18.54;77.41
50384;BME280;36301;48.310;12.786;2022-08-01T02:33:46;96177.94;;;18.46;77.74
50384;BME280;36301;48.310;12.786;2022-08-01T02:36:16;96175.03;;;18.37;78.45
50384;BME280;36301;48.310;12.786;2022-08-01T02:38:59;96172.13;;;18.28;78.58
50384;BME280;36301;48.310;12.786;2022-08-01T02:41:27;96166.06;;;18.24;78.77
50384;BME280;36301;48.310;12.786;2022-08-01T02:43:59;96173.41;;;18.20;79.38
50384;BME280;36301;48.310;12.786;2022-08-01T02:46:36;96171.66;;;18.09;79.77
50384;BME280;36301;48.310;12.786;2022-08-01T02:49:07;96174.00;;;18.07;79.73
50384;BME280;36301;48.310;12.786;2022-08-01T02:51:36;96178.56;;;18.10;79.79
50384;BME280;36301;48.310;12.786;2022-08-01T02:54:05;96176.69;;;18.07;80.03
50384;BME280;36301;48.310;12.786;2022-08-01T02:56:33;96182.09;;;18.04;79.99
50384;BME280;36301;48.310;12.786;2022-08-01T02:59:05;96184.41;;;18.05;79.90
50384;BME280;36301;48.310;12.786;2022-08-01T03:01:34;96178.75;;;18.00;80.19
50384;BME280;36301;48.310;12.786;2022-08-01T03:04:04;96181.44;;;18.00;80.23
50384;BME280;36301;48.310;12.786;2022-08-01T03:06:32;96183.78;;;17.94;80.28
50384;BME280;36301;48.310;12.786;2022-08-01T03:09:01;96188.00;;;17.95;80.38
50384;BME280;36301;48.310;12.786;2022-08-01T03:11:30;96187.41;;;17.84;80.69
50384;BME280;36301;48.310;12.786;2022-08-01T03:13:59;96185.09;;;17.86;80.36
50384;BME280;36301;48.310;12.786;2022-08-01T03:16:28;96188.97;;;17.81;80.56
50384;BME280;36301;48.310;12.786;2022-08-01T03:18:56;96191.72;;;17.78;80.74
50384;BME280;36301;48.310;12.786;2022-08-01T03:21:23;96185.59;;;17.77;80.84
50384;BME280;36301;48.310;12.786;2022-08-01T03:23:52;96189.75;;;17.82;80.52
50384;BME280;36301;48.310;12.786;2022-08-01T03:26:28;96195.09;;;17.82;80.38
50384;BME280;36301;48.310;12.786;2022-08-01T03:28:58;96198.47;;;17.86;80.35
50384;BME280;36301;48.310;12.786;2022-08-01T03:31:26;96195.44;;;17.84;80.25
50384;BME280;36301;48.310;12.786;2022-08-01T03:33:53;96191.31;;;17.79;80.42
50384;BME280;36301;48.310;12.786;2022-08-01T03:36:25;96185.28;;;17.72;80.77
50384;BME280;36301;48.310;12.786;2022-08-01T03:38:56;96186.81;;;17.73;80.92
50384;BME280;36301;48.310;12.786;2022-08-01T03:41:26;96187.97;;;17.72;80.90
50384;BME280;36301;48.310;12.786;2022-08-01T03:44:13;96196.00;;;17.72;80.76
50384;BME280;36301;48.310;12.786;2022-08-01T03:46:51;96186.44;;;17.71;80.91
50384;BME280;36301;48.310;12.786;2022-08-01T03:49:23;96185.41;;;17.64;81.16
50384;BME280;36301;48.310;12.786;2022-08-01T03:51:51;96178.41;;;17.74;80.47
50384;BME280;36301;48.310;12.786;2022-08-01T03:54:21;96186.81;;;17.73;80.29
50384;BME280;36301;48.310;12.786;2022-08-01T03:56:50;96189.88;;;17.71;80.19
50384;BME280;36301;48.310;12.786;2022-08-01T03:59:19;96198.31;;;17.70;80.15
50384;BME280;36301;48.310;12.786;2022-08-01T04:01:47;96198.72;;;17.68;79.98
50384;BME280;36301;48.310;12.786;2022-08-01T04:04:14;96188.91;;;17.58;80.31
50384;BME280;36301;48.310;12.786;2022-08-01T04:06:41;96202.50;;;17.74;79.37
50384;BME280;36301;48.310;12.786;2022-08-01T04:09:11;96199.09;;;17.70;79.28
50384;BME280;36301;48.310;12.786;2022-08-01T04:11:39;96204.38;;;17.74;79.48
50384;BME280;36301;48.310;12.786;2022-08-01T04:14:07;96210.88;;;17.76;79.00
50384;BME280;36301;48.310;12.786;2022-08-01T04:16:34;96210.13;;;17.76;78.81
50384;BME280;36301;48.310;12.786;2022-08-01T04:19:01;96222.16;;;17.87;77.91
50384;BME280;36301;48.310;12.786;2022-08-01T04:21:31;96213.72;;;17.89;77.53
50384;BME280;36301;48.310;12.786;2022-08-01T04:24:04;96225.44;;;17.99;77.52
50384;BME280;36301;48.310;12.786;2022-08-01T04:26:34;96231.16;;;18.01;77.42
50384;BME280;36301;48.310;12.786;2022-08-01T04:29:03;96230.69;;;18.06;77.17
50384;BME280;36301;48.310;12.786;2022-08-01T04:31:32;96224.88;;;18.11;76.36
50384;BME280;36301;48.310;12.786;2022-08-01T04:34:02;96235.03;;;18.20;76.47
50384;BME280;36301;48.310;12.786;2022-08-01T04:36:30;96232.38;;;18.20;76.33
50384;BME280;36301;48.310;12.786;2022-08-01T04:39:00;96235.03;;;18.20;76.45
50384;BME280;36301;48.310;12.786;2022-08-01T04:41:29;96247.91;;;18.28;76.07
50384;BME280;36301;48.310;12.786;2022-08-01T04:43:57;96247.97;;;18.25;75.99
50384;BME280;36301;48.310;12.786;2022-08-01T04:46:26;96255.50;;;18.33;75.31
50384;BME280;36301;48.310;12.786;2022-08-01T04:48:54;96261.09;;;18.42;74.89
50384;BME280;36301;48.310;12.786;2022-08-01T04:51:21;96258.69;;;18.48;74.79
50384;BME280;36301;48.310;12.786;2022-08-01T04:53:48;96259.09;;;18.90;73.27
50384;BME280;36301;48.310;12.786;2022-08-01T04:56:20;96265.25;;;19.66;69.74
50384;BME280;36301;48.310;12.786;2022-08-01T04:58:47;96253.94;;;20.24;66.38
50384;BME280;36301;48.310;12.786;2022-08-01T05:01:13;96258.72;;;19.84;67.49
50384;BME280;36301;48.310;12.786;2022-08-01T05:03:40;96263.69;;;19.49;68.93
50384;BME280;36301;48.310;12.786;2022-08-01T05:06:07;96261.41;;;19.67;68.17
50384;BME280;36301;48.310;12.786;2022-08-01T05:08:33;96258.56;;;20.24;65.88
50384;BME280;36301;48.310;12.786;2022-08-01T05:11:00;96267.47;;;19.88;66.80
50384;BME280;36301;48.310;12.786;2022-08-01T05:13:27;96265.63;;;19.85;66.39
50384;BME280;36301;48.310;12.786;2022-08-01T05:15:54;96264.22;;;20.13;65.88
50384;BME280;36301;48.310;12.786;2022-08-01T05:18:20;96258.84;;;21.84;59.44
50384;BME280;36301;48.310;12.786;2022-08-01T05:20:53;96265.13;;;22.75;56.13
50384;BME280;36301;48.310;12.786;2022-08-01T05:23:20;96261.41;;;22.95;54.92
50384;BME280;36301;48.310;12.786;2022-08-01T05:26:06;96262.75;;;23.12;54.24
50384;BME280;36301;48.310;12.786;2022-08-01T05:28:34;96264.31;;;23.53;53.26
50384;BME280;36301;48.310;12.786;2022-08-01T05:31:01;96262.19;;;23.17;53.76
50384;BME280;36301;48.310;12.786;2022-08-01T05:33:27;96263.81;;;22.11;57.22
50384;BME280;36301;48.310;12.786;2022-08-01T05:35:54;96269.84;;;21.64;58.56
50384;BME280;36301;48.310;12.786;2022-08-01T05:38:20;96250.72;;;21.33;59.63
50384;BME280;36301;48.310;12.786;2022-08-01T05:40:47;96272.72;;;21.31;60.74
50384;BME280;36301;48.310;12.786;2022-08-01T05:43:13;96281.47;;;21.48;60.33
50384;BME280;36301;48.310;12.786;2022-08-01T05:45:40;96275.00;;;21.58;59.75
50384;BME280;36301;48.310;12.786;2022-08-01T05:48:07;96275.56;;;21.66;59.93
50384;BME280;36301;48.310;12.786;2022-08-01T05:50:34;96277.50;;;21.65;59.57
50384;BME280;36301;48.310;12.786;2022-08-01T05:53:01;96286.03;;;21.76;58.50
50384;BME280;36301;48.310;12.786;2022-08-01T05:55:28;96281.78;;;21.63;59.53
50384;BME280;36301;48.310;12.786;2022-08-01T05:57:54;96287.75;;;21.96;58.36
50384;BME280;36301;48.310;12.786;2022-08-01T06:00:21;96295.94;;;22.18;58.46
50384;BME280;36301;48.310;12.786;2022-08-01T06:02:47;96298.16;;;22.79;56.78
50384;BME280;36301;48.310;12.786;2022-08-01T06:05:14;96301.38;;;22.87;55.90
50384;BME280;36301;48.310;12.786;2022-08-01T06:07:40;96310.13;;;22.57;57.15
50384;BME280;36301;48.310;12.786;2022-08-01T06:10:08;96307.13;;;22.42;57.73
50384;BME280;36301;48.310;12.786;2022-08-01T06:12:35;96312.44;;;22.33;57.66
50384;BME280;36301;48.310;12.786;2022-08-01T06:15:03;96312.13;;;22.18;58.27
50384;BME280;36301;48.310;12.786;2022-08-01T06:17:29;96318.06;;;22.00;58.41
50384;BME280;36301;48.310;12.786;2022-08-01T06:19:56;96325.03;;;21.97;59.70
50384;BME280;36301;48.310;12.786;2022-08-01T06:22:23;96319.13;;;22.02;58.79
50384;BME280;36301;48.310;12.786;2022-08-01T06:24:50;96326.25;;;21.96;58.88
50384;BME280;36301;48.310;12.786;2022-08-01T06:27:17;96331.31;;;22.07;58.03
50384;BME280;36301;48.310;12.786;2022-08-01T06:29:47;96331.75;;;22.18;57.80
50384;BME280;36301;48.310;12.786;2022-08-01T06:32:20;96329.81;;;22.32;58.20
50384;BME280;36301;48.310;12.786;2022-08-01T06:34:53;96336.06;;;22.28;58.32
50384;BME280;36301;48.310;12.786;2022-08-01T06:37:19;96334.00;;;22.80;57.23
50384;BME280;36301;48.310;12.786;2022-08-01T06:39:46;96337.34;;;22.97;55.79
50384;BME280;36301;48.310;12.786;2022-08-01T06:42:12;96338.56;;;23.18;54.63
50384;BME280;36301;48.310;12.786;2022-08-01T06:44:41;96337.47;;;23.59;54.15
50384;BME280;36301;48.310;12.786;2022-08-01T06:47:07;96333.63;;;24.00;53.51
50384;BME280;36301;48.310;12.786;2022-08-01T06:49:34;96335.34;;;24.16;51.84
50384;BME280;36301;48.310;12.786;2022-08-01T06:52:01;96337.91;;;23.79;53.63
50384;BME280;36301;48.310;12.786;2022-08-01T06:54:27;96330.50;;;23.71;55.19
50384;BME280;36301;48.310;12.786;2022-08-01T06:56:54;96327.72;;;23.62;55.37
50384;BME280;36301;48.310;12.786;2022-08-01T06:59:20;96341.38;;;23.58;54.70
50384;BME280;36301;48.310;12.786;2022-08-01T07:01:47;96343.84;;;23.43;54.24
50384;BME280;36301;48.310;12.786;2022-08-01T07:04:13;96337.53;;;23.24;54.67
50384;BME280;36301;48.310;12.786;2022-08-01T07:06:40;96345.34;;;23.22;55.03
50384;BME280;36301;48.310;12.786;2022-08-01T07:09:06;96337.97;;;23.01;55.21
50384;BME280;36301;48.310;12.786;2022-08-01T07:11:39;96342.56;;;23.13;55.82
50384;BME280;36301;48.310;12.786;2022-08-01T07:14:06;96349.47;;;23.36;54.04
50384;BME280;36301;48.310;12.786;2022-08-01T07:16:32;96350.53;;;24.54;51.30
50384;BME280;36301;48.310;12.786;2022-08-01T07:18:59;96359.25;;;25.86;48.36
50384;BME280;36301;48.310;12.786;2022-08-01T07:21:25;96344.84;;;27.48;43.68
50384;BME280;36301;48.310;12.786;2022-08-01T07:24:12;96338.94;;;27.94;41.46
50384;BME280;36301;48.310;12.786;2022-08-01T07:26:42;96351.00;;;28.58;42.54
50384;BME280;36301;48.310;12.786;2022-08-01T07:29:20;96353.13;;;28.68;40.07
50384;BME280;36301;48.310;12.786;2022-08-01T07:31:46;96354.84;;;28.66;40.46
50384;BME280;36301;48.310;12.786;2022-08-01T07:34:13;96354.53;;;28.64;40.76
50384;BME280;36301;48.310;12.786;2022-08-01T07:36:39;96354.84;;;28.66;40.27
50384;BME280;36301;48.310;12.786;2022-08-01T07:39:06;96357.94;;;28.59;40.23
50384;BME280;36301;48.310;12.786;2022-08-01T07:41:32;96357.94;;;28.59;39.89
50384;BME280;36301;48.310;12.786;2022-08-01T07:44:19;96352.72;;;28.76;39.67
50384;BME280;36301;48.310;12.786;2022-08-01T07:46:45;96357.53;;;29.27;39.22
50384;BME280;36301;48.310;12.786;2022-08-01T07:49:12;96350.31;;;28.42;39.21
50384;BME280;36301;48.310;12.786;2022-08-01T07:51:38;96354.25;;;28.41;41.05
50384;BME280;36301;48.310;12.786;2022-08-01T07:54:05;96354.41;;;28.53;40.25
50384;BME280;36301;48.310;12.786;2022-08-01T07:56:31;96352.16;;;28.51;39.33
50384;BME280;36301;48.310;12.786;2022-08-01T07:58:58;96354.97;;;28.77;39.92
50384;BME280;36301;48.310;12.786;2022-08-01T08:01:24;96339.72;;;28.85;39.67
50384;BME280;36301;48.310;12.786;2022-08-01T08:03:51;96359.84;;;29.34;38.63
50384;BME280;36301;48.310;12.786;2022-08-01T08:06:17;96348.50;;;29.15;38.35
50384;BME280;36301;48.310;12.786;2022-08-01T08:08:44;96344.97;;;29.56;38.90
50384;BME280;36301;48.310;12.786;2022-08-01T08:11:10;96359.50;;;29.01;38.17
50384;BME280;36301;48.310;12.786;2022-08-01T08:13:37;96350.06;;;28.81;38.69
50384;BME280;36301;48.310;12.786;2022-08-01T08:16:03;96355.88;;;29.56;38.20
50384;BME280;36301;48.310;12.786;2022-08-01T08:18:30;96359.00;;;29.48;38.41
50384;BME280;36301;48.310;12.786;2022-08-01T08:20:56;96359.78;;;29.29;38.93
50384;BME280;36301;48.310;12.786;2022-08-01T08:23:23;96363.00;;;29.79;38.00
50384;BME280;36301;48.310;12.786;2022-08-01T08:26:12;96363.25;;;29.76;37.84
50384;BME280;36301;48.310;12.786;2022-08-01T08:28:38;96369.00;;;29.83;37.31
50384;BME280;36301;48.310;12.786;2022-08-01T08:31:06;96370.94;;;29.25;38.62
50384;BME280;36301;48.310;12.786;2022-08-01T08:33:51;96371.03;;;29.36;38.13
50384;BME280;36301;48.310;12.786;2022-08-01T08:36:17;96368.59;;;29.18;40.16
50384;BME280;36301;48.310;12.786;2022-08-01T08:38:44;96371.00;;;29.83;38.83
50384;BME280;36301;48.310;12.786;2022-08-01T08:41:11;96366.03;;;29.81;38.42
50384;BME280;36301;48.310;12.786;2022-08-01T08:43:42;96367.72;;;30.10;38.19
50384;BME280;36301;48.310;12.786;2022-08-01T08:46:08;96372.19;;;30.08;38.69
50384;BME280;36301;48.310;12.786;2022-08-01T08:48:39;96371.41;;;29.50;38.42
50384;BME280;36301;48.310;12.786;2022-08-01T08:51:07;96370.84;;;29.19;41.11
50384;BME280;36301;48.310;12.786;2022-08-01T08:53:35;96374.31;;;30.24;39.05
50384;BME280;36301;48.310;12.786;2022-08-01T08:56:03;96368.03;;;30.55;36.85
50384;BME280;36301;48.310;12.786;2022-08-01T08:58:33;96369.00;;;30.46;37.75
50384;BME280;36301;48.310;12.786;2022-08-01T09:01:07;96368.00;;;30.49;37.48
50384;BME280;36301;48.310;12.786;2022-08-01T09:03:34;96369.16;;;30.74;37.46
50384;BME280;36301;48.310;12.786;2022-08-01T09:06:03;96361.44;;;30.30;37.65
50384;BME280;36301;48.310;12.786;2022-08-01T09:08:29;96366.16;;;30.30;37.94
50384;BME280;36301;48.310;12.786;2022-08-01T09:10:56;96374.25;;;29.87;37.40
50384;BME280;36301;48.310;12.786;2022-08-01T09:13:23;96367.72;;;29.53;38.69
50384;BME280;36301;48.310;12.786;2022-08-01T09:15:54;96376.81;;;29.44;38.78
50384;BME280;36301;48.310;12.786;2022-08-01T09:18:38;96369.63;;;29.67;38.45
50384;BME280;36301;48.310;12.786;2022-08-01T09:21:17;96374.56;;;29.42;39.98
50384;BME280;36301;48.310;12.786;2022-08-01T09:26:40;96368.34;;;28.40;40.32
50384;BME280;36301;48.310;12.786;2022-08-01T09:29:08;96365.28;;;28.53;42.40
50384;BME280;36301;48.310;12.786;2022-08-01T09:32:05;96369.41;;;28.63;41.16
50384;BME280;36301;48.310;12.786;2022-08-01T09:34:33;96362.25;;;27.27;43.44
50384;BME280;36301;48.310;12.786;2022-08-01T09:37:01;96354.25;;;28.41;41.82
50384;BME280;36301;48.310;12.786;2022-08-01T09:39:31;96364.63;;;28.78;41.81
50384;BME280;36301;48.310;12.786;2022-08-01T09:42:00;96359.84;;;30.12;39.67
50384;BME280;36301;48.310;12.786;2022-08-01T09:44:42;96358.25;;;29.02;40.67
50384;BME280;36301;48.310;12.786;2022-08-01T09:47:21;96363.22;;;27.38;42.95
50384;BME280;36301;48.310;12.786;2022-08-01T09:49:55;96355.16;;;26.67;44.03
50384;BME280;36301;48.310;12.786;2022-08-01T09:52:26;96346.91;;;27.83;42.07
50384;BME280;36301;48.310;12.786;2022-08-01T09:57:22;96343.94;;;29.07;40.92
50384;BME280;36301;48.310;12.786;2022-08-01T09:59:50;96360.19;;;29.42;40.06
50384;BME280;36301;48.310;12.786;2022-08-01T10:02:32;96343.47;;;29.86;41.24
50384;BME280;36301;48.310;12.786;2022-08-01T10:05:01;96345.72;;;28.89;40.89
50384;BME280;36301;48.310;12.786;2022-08-01T10:07:34;96346.91;;;29.55;39.32
50384;BME280;36301;48.310;12.786;2022-08-01T10:10:14;96355.19;;;29.61;38.85
50384;BME280;36301;48.310;12.786;2022-08-01T10:12:42;96362.13;;;29.93;40.18
50384;BME280;36301;48.310;12.786;2022-08-01T10:15:11;96346.75;;;29.64;40.39
50384;BME280;36301;48.310;12.786;2022-08-01T10:17:46;96349.84;;;29.52;39.57
50384;BME280;36301;48.310;12.786;2022-08-01T10:20:18;96348.03;;;29.69;40.86
50384;BME280;36301;48.310;12.786;2022-08-01T10:22:59;96349.94;;;29.89;39.35
50384;BME280;36301;48.310;12.786;2022-08-01T10:25:37;96348.53;;;28.95;39.36
50384;BME280;36301;48.310;12.786;2022-08-01T10:28:16;96345.06;;;27.89;41.84
50384;BME280;36301;48.310;12.786;2022-08-01T10:30:50;96351.06;;;28.28;41.09
50384;BME280;36301;48.310;12.786;2022-08-01T10:33:21;96346.00;;;28.36;41.33
50384;BME280;36301;48.310;12.786;2022-08-01T10:36:08;96335.94;;;28.42;41.10
50384;BME280;36301;48.310;12.786;2022-08-01T10:38:36;96333.38;;;29.40;37.87
50384;BME280;36301;48.310;12.786;2022-08-01T10:41:04;96331.38;;;29.61;40.25
50384;BME280;36301;48.310;12.786;2022-08-01T10:43:32;96329.56;;;29.84;37.41
50384;BME280;36301;48.310;12.786;2022-08-01T10:46:01;96325.91;;;29.35;39.02
50384;BME280;36301;48.310;12.786;2022-08-01T10:51:05;96328.19;;;29.42;39.52
50384;BME280;36301;48.310;12.786;2022-08-01T10:53:51;96328.75;;;29.00;39.69
50384;BME280;36301;48.310;12.786;2022-08-01T10:56:21;96323.09;;;28.63;40.31
50384;BME280;36301;48.310;12.786;2022-08-01T10:59:02;96331.47;;;28.80;39.18
50384;BME280;36301;48.310;12.786;2022-08-01T11:01:36;96321.34;;;28.25;40.58
50384;BME280;36301;48.310;12.786;2022-08-01T11:04:12;96326.16;;;28.00;41.32
50384;BME280;36301;48.310;12.786;2022-08-01T11:06:48;96321.31;;;27.45;41.57
50384;BME280;36301;48.310;12.786;2022-08-01T11:09:24;96320.56;;;27.89;40.39
50384;BME280;36301;48.310;12.786;2022-08-01T11:12:09;96314.28;;;27.38;41.37
50384;BME280;36301;48.310;12.786;2022-08-01T11:17:41;96307.16;;;27.85;41.31
50384;BME280;36301;48.310;12.786;2022-08-01T11:20:15;96286.53;;;27.79;40.07
50384;BME280;36301;48.310;12.786;2022-08-01T11:28:32;96292.91;;;28.87;39.84
50384;BME280;36301;48.310;12.786;2022-08-01T11:38:44;96286.53;;;28.14;41.26
50384;BME280;36301;48.310;12.786;2022-08-01T11:41:30;96279.91;;;28.00;41.69
50384;BME280;36301;48.310;12.786;2022-08-01T11:49:24;96272.88;;;28.90;39.35
50384;BME280;36301;48.310;12.786;2022-08-01T11:52:24;96273.06;;;29.07;39.27
50384;BME280;36301;48.310;12.786;2022-08-01T11:57:30;96271.69;;;29.17;38.88
50384;BME280;36301;48.310;12.786;2022-08-01T12:00:06;96275.47;;;29.25;38.08
50384;BME280;36301;48.310;12.786;2022-08-01T12:06:28;96269.31;;;27.87;39.93
50384;BME280;36301;48.310;12.786;2022-08-01T12:09:14;96276.66;;;27.37;41.71
50384;BME280;36301;48.310;12.786;2022-08-01T12:11:41;96265.09;;;27.86;40.38
50384;BME280;36301;48.310;12.786;2022-08-01T12:14:08;96261.50;;;28.71;38.54
50384;BME280;36301;48.310;12.786;2022-08-01T12:16:34;96269.25;;;28.78;40.36
50384;BME280;36301;48.310;12.786;2022-08-01T12:19:01;96259.06;;;28.53;38.75
50384;BME280;36301;48.310;12.786;2022-08-01T12:21:28;96249.38;;;28.31;38.54
50384;BME280;36301;48.310;12.786;2022-08-01T12:24:02;96259.88;;;27.68;40.20
50384;BME280;36301;48.310;12.786;2022-08-01T12:26:40;96263.25;;;27.63;39.12
50384;BME280;36301;48.310;12.786;2022-08-01T12:29:06;96262.81;;;27.35;40.22
50384;BME280;36301;48.310;12.786;2022-08-01T12:31:36;96265.13;;;27.42;40.43
50384;BME280;36301;48.310;12.786;2022-08-01T12:34:41;96265.25;;;27.48;40.29
50384;BME280;36301;48.310;12.786;2022-08-01T12:37:07;96260.72;;;28.65;38.67
50384;BME280;36301;48.310;12.786;2022-08-01T12:39:35;96256.41;;;28.03;38.96
50384;BME280;36301;48.310;12.786;2022-08-01T12:42:07;96267.97;;;28.33;37.77
50384;BME280;36301;48.310;12.786;2022-08-01T12:44:37;96257.59;;;28.98;37.26
50384;BME280;36301;48.310;12.786;2022-08-01T12:47:05;96260.56;;;29.20;34.65
50384;BME280;36301;48.310;12.786;2022-08-01T12:49:36;96257.06;;;29.46;35.64
50384;BME280;36301;48.310;12.786;2022-08-01T12:52:04;96260.75;;;29.43;36.50
50384;BME280;36301;48.310;12.786;2022-08-01T12:55:00;96252.72;;;29.60;36.15
50384;BME280;36301;48.310;12.786;2022-08-01T12:57:27;96246.66;;;29.18;35.73
50384;BME280;36301;48.310;12.786;2022-08-01T13:00:11;96243.44;;;28.74;36.83
50384;BME280;36301;48.310;12.786;2022-08-01T13:02:39;96252.38;;;29.20;36.87
50384;BME280;36301;48.310;12.786;2022-08-01T13:05:06;96239.56;;;28.80;37.30
50384;BME280;36301;48.310;12.786;2022-08-01T13:07:37;96241.78;;;29.60;35.66
50384;BME280;36301;48.310;12.786;2022-08-01T13:10:12;96229.13;;;29.94;36.45
50384;BME280;36301;48.310;12.786;2022-08-01T13:12:40;96230.63;;;30.01;36.55
50384;BME280;36301;48.310;12.786;2022-08-01T13:15:34;96243.59;;;29.68;36.40
50384;BME280;36301;48.310;12.786;2022-08-01T13:21:15;96247.44;;;29.88;35.78
50384;BME280;36301;48.310;12.786;2022-08-01T13:24:10;96238.59;;;30.04;35.63
50384;BME280;36301;48.310;12.786;2022-08-01T13:29:05;96234.66;;;28.84;37.41
50384;BME280;36301;48.310;12.786;2022-08-01T13:31:32;96246.09;;;28.27;37.77
50384;BME280;36301;48.310;12.786;2022-08-01T13:33:59;96247.47;;;28.17;37.88
50384;BME280;36301;48.310;12.786;2022-08-01T13:36:26;96240.41;;;28.66;38.07
50384;BME280;36301;48.310;12.786;2022-08-01T13:38:54;96226.44;;;28.17;38.74
50384;BME280;36301;48.310;12.786;2022-08-01T13:41:40;96233.13;;;27.81;38.36
50384;BME280;36301;48.310;12.786;2022-08-01T13:44:06;96227.72;;;27.52;39.07
50384;BME280;36301;48.310;12.786;2022-08-01T13:46:36;96237.50;;;27.44;38.94
50384;BME280;36301;48.310;12.786;2022-08-01T13:49:05;96239.28;;;27.17;40.60
50384;BME280;36301;48.310;12.786;2022-08-01T13:51:41;96233.91;;;26.93;40.83
50384;BME280;36301;48.310;12.786;2022-08-01T13:54:08;96244.44;;;26.76;42.21